Time;durP1;ratioP1;P1;durP2;ratioP2;P2;SDS_P1;SDS_P2;PMS_P1;PMS_P2;Temp;Humidity;BMP_temperature;BMP_pressure;BME280_temperature;BME280_humidity;BME280_pressure;Samples;Min_cycle;Max_cycle;Signal;HPM_P1;HPM_P2
2024/03/26 00:02:04;;;;;;;4.90;3.17;;;;;;;;;;5093413;28;20024;-57
2024/03/26 00:04:30;;;;;;;8.38;3.45;;;;;;;;;;5094025;28;20024;-56
2024/03/26 00:06:56;;;;;;;6.38;3.30;;;;;;;;;;5080240;28;20420;-56
2024/03/26 00:09:23;;;;;;;8.13;3.30;;;;;;;;;;5076096;28;20028;-57
2024/03/26 00:11:49;;;;;;;7.53;3.30;;;;;;;;;;5093137;28;20028;-58
2024/03/26 00:14:15;;;;;;;7.35;3.15;;;;;;;;;;5074562;28;20033;-57
2024/03/26 00:16:41;;;;;;;8.45;3.92;;;;;;;;;;5082029;28;20107;-57
2024/03/26 00:19:07;;;;;;;9.77;3.63;;;;;;;;;;5094619;28;20111;-57
2024/03/26 00:21:33;;;;;;;9.20;3.65;;;;;;;;;;5093933;28;20447;-57
2024/03/26 00:23:59;;;;;;;9.02;3.83;;;;;;;;;;5093503;28;20165;-57
2024/03/26 00:26:25;;;;;;;6.53;3.65;;;;;;;;;;5083206;28;20031;-57
2024/03/26 00:28:51;;;;;;;7.82;3.92;;;;;;;;;;5093400;28;20038;-55
2024/03/26 00:31:17;;;;;;;7.15;3.33;;;;;;;;;;5094335;28;20492;-57
2024/03/26 00:33:43;;;;;;;7.45;4.43;;;;;;;;;;5093711;28;20056;-57
2024/03/26 00:36:09;;;;;;;11.00;3.70;;;;;;;;;;5094387;28;20123;-57
2024/03/26 00:38:35;;;;;;;8.40;3.75;;;;;;;;;;5078430;28;20017;-57
2024/03/26 00:41:01;;;;;;;9.23;4.40;;;;;;;;;;5077045;28;20024;-57
2024/03/26 00:43:27;;;;;;;7.20;3.60;;;;;;;;;;5084900;28;20031;-57
2024/03/26 00:45:53;;;;;;;9.52;4.10;;;;;;;;;;5092741;28;20071;-57
2024/03/26 00:48:19;;;;;;;7.60;3.50;;;;;;;;;;5094492;28;20425;-49
2024/03/26 00:50:46;;;;;;;6.93;3.63;;;;;;;;;;5091643;28;20067;-52
2024/03/26 00:53:12;;;;;;;12.10;4.15;;;;;;;;;;5086942;28;20028;-51
2024/03/26 00:55:38;;;;;;;8.30;3.75;;;;;;;;;;5091118;28;20024;-51
2024/03/26 00:58:04;;;;;;;6.18;3.75;;;;;;;;;;5082976;28;20460;-50
2024/03/26 01:00:30;;;;;;;6.88;3.75;;;;;;;;;;5089398;28;20028;-51
2024/03/26 01:02:56;;;;;;;7.97;4.03;;;;;;;;;;5086757;28;20035;-49
2024/03/26 01:05:22;;;;;;;8.95;4.00;;;;;;;;;;5098259;28;20012;-52
2024/03/26 01:07:48;;;;;;;12.90;5.25;;;;;;;;;;5100737;28;20032;-57
2024/03/26 01:10:14;;;;;;;11.40;4.20;;;;;;;;;;5093608;28;20056;-57
2024/03/26 01:12:40;;;;;;;6.22;3.70;;;;;;;;;;5087223;28;20028;-57
2024/03/26 01:15:07;;;;;;;5.20;3.35;;;;;;;;;;5092141;28;20553;-57
2024/03/26 01:17:33;;;;;;;7.97;4.53;;;;;;;;;;5078974;28;20024;-58
2024/03/26 01:19:59;;;;;;;11.52;4.50;;;;;;;;;;5091552;28;20545;-57
2024/03/26 01:22:26;;;;;;;16.10;5.03;;;;;;;;;;5093042;28;20491;-57
2024/03/26 01:24:52;;;;;;;7.93;4.80;;;;;;;;;;5091828;28;20027;-57
2024/03/26 01:27:18;;;;;;;14.90;4.75;;;;;;;;;;5080805;28;20032;-58
2024/03/26 01:29:44;;;;;;;9.32;4.45;;;;;;;;;;5089333;28;20036;-57
2024/03/26 01:32:10;;;;;;;10.52;4.65;;;;;;;;;;5079487;28;20107;-57
2024/03/26 01:34:35;;;;;;;8.18;4.38;;;;;;;;;;5084160;28;20028;-58
2024/03/26 01:37:01;;;;;;;10.40;4.28;;;;;;;;;;5093196;28;20115;-58
2024/03/26 01:39:27;;;;;;;7.30;4.28;;;;;;;;;;5073905;28;20037;-55
2024/03/26 01:41:53;;;;;;;7.57;4.28;;;;;;;;;;5075936;28;20484;-55
2024/03/26 01:44:19;;;;;;;8.93;4.03;;;;;;;;;;5086231;28;20419;-57
2024/03/26 01:46:45;;;;;;;12.23;4.68;;;;;;;;;;5075637;28;20369;-57
2024/03/26 01:49:13;;;;;;;10.18;4.80;;;;;;;;;;5087752;28;20038;-57
2024/03/26 01:51:40;;;;;;;9.82;4.45;;;;;;;;;;5087267;28;20063;-57
2024/03/26 01:54:06;;;;;;;12.07;4.97;;;;;;;;;;5085402;28;20036;-57
2024/03/26 01:56:32;;;;;;;9.77;4.45;;;;;;;;;;5086867;28;20039;-58
2024/03/26 01:58:59;;;;;;;9.40;4.18;;;;;;;;;;5090314;28;20036;-57
2024/03/26 02:01:27;;;;;;;6.35;4.18;;;;;;;;;;5090669;28;20149;-51
2024/03/26 02:03:53;;;;;;;9.52;4.63;;;;;;;;;;5090183;28;20098;-49
2024/03/26 02:06:19;;;;;;;10.40;4.55;;;;;;;;;;5091878;28;20032;-51
2024/03/26 02:08:46;;;;;;;12.15;4.13;;;;;;;;;;5087610;28;20040;-50
2024/03/26 02:11:12;;;;;;;13.82;4.65;;;;;;;;;;5081260;28;20081;-51
2024/03/26 02:13:38;;;;;;;15.10;5.15;;;;;;;;;;5092413;28;20091;-52
2024/03/26 02:16:04;;;;;;;10.93;5.32;;;;;;;;;;5087109;28;20028;-51
2024/03/26 02:18:30;;;;;;;8.68;4.65;;;;;;;;;;5092648;28;20028;-51
2024/03/26 02:20:56;;;;;;;8.05;4.07;;;;;;;;;;5087114;28;20020;-49
2024/03/26 02:23:22;;;;;;;15.07;4.70;;;;;;;;;;5091133;28;20024;-51
2024/03/26 02:25:48;;;;;;;12.23;4.88;;;;;;;;;;5088922;28;20493;-51
2024/03/26 02:28:14;;;;;;;10.40;4.55;;;;;;;;;;5073999;28;20039;-52
2024/03/26 02:30:40;;;;;;;8.30;4.05;;;;;;;;;;5086325;28;20476;-53
2024/03/26 02:33:06;;;;;;;11.63;4.63;;;;;;;;;;5090137;28;20103;-51
2024/03/26 02:35:32;;;;;;;12.10;4.85;;;;;;;;;;5090517;28;20108;-52
2024/03/26 02:37:58;;;;;;;8.80;4.43;;;;;;;;;;5092218;28;20032;-52
2024/03/26 02:40:24;;;;;;;10.43;4.53;;;;;;;;;;5089575;28;20028;-51
2024/03/26 02:42:50;;;;;;;15.40;5.75;;;;;;;;;;5079598;28;20103;-52
2024/03/26 02:45:16;;;;;;;8.82;4.88;;;;;;;;;;5097846;28;20072;-51
2024/03/26 02:47:42;;;;;;;10.80;5.00;;;;;;;;;;5092038;28;20368;-49
2024/03/26 02:50:08;;;;;;;9.63;4.63;;;;;;;;;;5087259;28;20080;-51
2024/03/26 02:52:35;;;;;;;9.73;4.47;;;;;;;;;;5085207;28;20097;-51
2024/03/26 02:55:01;;;;;;;11.50;4.57;;;;;;;;;;5088666;28;20115;-52
2024/03/26 02:57:27;;;;;;;11.45;5.00;;;;;;;;;;5090065;28;20030;-52
2024/03/26 02:59:53;;;;;;;16.20;5.10;;;;;;;;;;5098657;28;20055;-53
2024/03/26 03:02:20;;;;;;;10.60;5.20;;;;;;;;;;5091348;28;20447;-51
2024/03/26 03:04:46;;;;;;;10.55;4.97;;;;;;;;;;5092348;28;20444;-50
2024/03/26 03:07:12;;;;;;;9.55;4.72;;;;;;;;;;5089816;28;20093;-53
2024/03/26 03:09:38;;;;;;;15.88;5.93;;;;;;;;;;5082438;28;20818;-57
2024/03/26 03:12:04;;;;;;;9.02;4.68;;;;;;;;;;5076527;28;20039;-56
2024/03/26 03:14:30;;;;;;;7.90;4.53;;;;;;;;;;5082488;28;20050;-56
2024/03/26 03:16:56;;;;;;;11.60;5.13;;;;;;;;;;5074433;28;20040;-57
2024/03/26 03:19:22;;;;;;;7.65;4.45;;;;;;;;;;5073094;28;20361;-57
2024/03/26 03:21:48;;;;;;;8.18;4.80;;;;;;;;;;5074879;28;20044;-57
2024/03/26 03:24:14;;;;;;;10.70;4.68;;;;;;;;;;5082602;28;20051;-57
2024/03/26 03:26:40;;;;;;;8.68;4.57;;;;;;;;;;5088991;28;20158;-57
2024/03/26 03:29:06;;;;;;;12.43;4.60;;;;;;;;;;5095351;28;20028;-58
2024/03/26 03:31:32;;;;;;;7.88;4.03;;;;;;;;;;5084910;28;20039;-57
2024/03/26 03:33:58;;;;;;;9.52;4.55;;;;;;;;;;5093999;28;20028;-57
2024/03/26 03:36:24;;;;;;;8.02;3.85;;;;;;;;;;5094742;28;20043;-57
2024/03/26 03:38:50;;;;;;;5.65;3.58;;;;;;;;;;5084263;28;20032;-56
2024/03/26 03:41:16;;;;;;;7.60;4.07;;;;;;;;;;5093755;28;20042;-57
2024/03/26 03:43:42;;;;;;;13.95;4.80;;;;;;;;;;5090147;28;20016;-58
2024/03/26 03:46:08;;;;;;;11.23;4.78;;;;;;;;;;5086866;28;20024;-57
2024/03/26 03:48:34;;;;;;;8.13;4.35;;;;;;;;;;5095326;28;20036;-57
2024/03/26 03:51:00;;;;;;;10.45;4.80;;;;;;;;;;5090435;28;20057;-57
2024/03/26 03:53:26;;;;;;;11.13;4.55;;;;;;;;;;5077838;28;20030;-58
2024/03/26 03:55:52;;;;;;;7.40;4.13;;;;;;;;;;5093326;28;20028;-57
2024/03/26 03:58:18;;;;;;;8.95;4.47;;;;;;;;;;5091157;28;20028;-57
2024/03/26 04:00:44;;;;;;;10.30;4.25;;;;;;;;;;5079777;28;20040;-57
2024/03/26 04:03:10;;;;;;;10.95;5.00;;;;;;;;;;5094178;28;20020;-57
2024/03/26 04:05:39;;;;;;;9.43;4.20;;;;;;;;;;5084182;28;20488;-57
2024/03/26 04:08:05;;;;;;;8.93;4.47;;;;;;;;;;5087874;28;20024;-58
2024/03/26 04:10:31;;;;;;;6.95;4.30;;;;;;;;;;5088035;28;20028;-57
2024/03/26 04:12:57;;;;;;;10.90;4.45;;;;;;;;;;5086403;28;20141;-56
2024/03/26 04:15:23;;;;;;;7.75;4.35;;;;;;;;;;5081894;28;20039;-57
2024/03/26 04:17:53;;;;;;;8.00;4.53;;;;;;;;;;5084234;28;20021;-52
2024/03/26 04:20:19;;;;;;;9.20;4.28;;;;;;;;;;5094693;28;20105;-54
2024/03/26 04:22:48;;;;;;;8.88;4.03;;;;;;;;;;5087354;28;20029;-54
2024/03/26 04:25:17;;;;;;;10.52;4.50;;;;;;;;;;5074597;28;20107;-54
2024/03/26 04:27:43;;;;;;;13.80;4.75;;;;;;;;;;5092618;28;20028;-54
2024/03/26 04:30:09;;;;;;;10.55;4.20;;;;;;;;;;5094517;28;20024;-53
2024/03/26 04:32:36;;;;;;;10.90;4.53;;;;;;;;;;5093085;28;20031;-52
2024/03/26 04:35:02;;;;;;;10.85;4.82;;;;;;;;;;5086698;28;20036;-52
2024/03/26 04:37:28;;;;;;;8.52;4.43;;;;;;;;;;5093424;28;20032;-54
2024/03/26 04:39:54;;;;;;;14.98;5.10;;;;;;;;;;5092894;28;20051;-54
2024/03/26 04:42:20;;;;;;;10.18;4.55;;;;;;;;;;5088443;28;20024;-54
2024/03/26 04:44:46;;;;;;;11.13;4.22;;;;;;;;;;5093145;28;20111;-53
2024/03/26 04:47:12;;;;;;;13.68;4.90;;;;;;;;;;5093953;28;20031;-53
2024/03/26 04:49:38;;;;;;;11.13;4.80;;;;;;;;;;5093808;28;20054;-54
2024/03/26 04:52:04;;;;;;;12.45;4.78;;;;;;;;;;5092650;28;20047;-53
2024/03/26 04:54:30;;;;;;;11.75;4.78;;;;;;;;;;5091826;28;20115;-53
2024/03/26 04:56:56;;;;;;;7.72;4.20;;;;;;;;;;5092271;28;20132;-52
2024/03/26 04:59:22;;;;;;;7.05;4.28;;;;;;;;;;5093382;28;20035;-54
2024/03/26 05:01:48;;;;;;;9.55;4.63;;;;;;;;;;5085420;28;20507;-53
2024/03/26 05:04:14;;;;;;;12.60;5.00;;;;;;;;;;5082228;28;20024;-54
2024/03/26 05:06:40;;;;;;;13.15;4.53;;;;;;;;;;5089858;28;20031;-52
2024/03/26 05:09:09;;;;;;;11.43;4.32;;;;;;;;;;5090059;28;20494;-53
2024/03/26 05:11:35;;;;;;;6.28;3.97;;;;;;;;;;5091651;28;20063;-52
2024/03/26 05:14:01;;;;;;;7.97;4.38;;;;;;;;;;5083019;28;20403;-53
2024/03/26 05:16:27;;;;;;;8.60;4.22;;;;;;;;;;5090935;28;20035;-53
2024/03/26 05:18:53;;;;;;;6.45;3.85;;;;;;;;;;5091491;28;20016;-54
2024/03/26 05:21:19;;;;;;;10.20;3.92;;;;;;;;;;5089208;28;20040;-53
2024/03/26 05:23:46;;;;;;;9.52;3.80;;;;;;;;;;5081609;28;20028;-52
2024/03/26 05:26:12;;;;;;;11.70;4.90;;;;;;;;;;5087838;28;20038;-54
2024/03/26 05:28:38;;;;;;;8.23;3.92;;;;;;;;;;5088446;28;20032;-58
2024/03/26 05:31:19;;;;;;;11.00;3.97;;;;;;;;;;5091105;28;20069;-57
2024/03/26 05:33:46;;;;;;;9.45;4.50;;;;;;;;;;5085699;28;20042;-57
2024/03/26 05:36:12;;;;;;;9.25;4.35;;;;;;;;;;5087659;28;20418;-58
2024/03/26 05:38:39;;;;;;;10.50;4.88;;;;;;;;;;5089538;28;20474;-58
2024/03/26 05:41:05;;;;;;;11.40;4.93;;;;;;;;;;5092145;28;20076;-58
2024/03/26 05:43:31;;;;;;;9.48;4.18;;;;;;;;;;5087952;28;20016;-57
2024/03/26 05:45:57;;;;;;;10.52;3.75;;;;;;;;;;5091580;28;20090;-57
2024/03/26 05:48:23;;;;;;;6.25;4.05;;;;;;;;;;5092251;28;20036;-58
2024/03/26 05:50:49;;;;;;;11.32;3.88;;;;;;;;;;5089285;28;20140;-58
2024/03/26 05:53:15;;;;;;;9.95;4.10;;;;;;;;;;5091675;28;20550;-59
2024/03/26 05:55:42;;;;;;;12.73;4.40;;;;;;;;;;5088898;28;20099;-57
2024/03/26 05:58:08;;;;;;;8.65;3.83;;;;;;;;;;5089345;28;20031;-58
2024/03/26 06:00:34;;;;;;;7.72;3.67;;;;;;;;;;5084604;28;20020;-58
2024/03/26 06:03:00;;;;;;;9.68;4.13;;;;;;;;;;5091086;28;20160;-58
2024/03/26 06:05:26;;;;;;;6.78;3.42;;;;;;;;;;5095641;28;20447;-57
2024/03/26 06:07:52;;;;;;;7.55;3.83;;;;;;;;;;5082972;28;20111;-57
2024/03/26 06:10:18;;;;;;;6.32;3.28;;;;;;;;;;5091181;28;20040;-57
2024/03/26 06:12:44;;;;;;;5.30;3.53;;;;;;;;;;5087039;28;20034;-57
2024/03/26 06:15:10;;;;;;;6.90;3.70;;;;;;;;;;5087685;28;20472;-57
2024/03/26 06:17:36;;;;;;;7.22;3.15;;;;;;;;;;5084879;28;20438;-58
2024/03/26 06:20:04;;;;;;;5.88;3.53;;;;;;;;;;5091015;28;20063;-58
2024/03/26 06:22:30;;;;;;;5.43;3.17;;;;;;;;;;5090938;28;20077;-58
2024/03/26 06:24:56;;;;;;;7.25;3.25;;;;;;;;;;5079486;28;20024;-56
2024/03/26 06:27:22;;;;;;;8.93;4.05;;;;;;;;;;5090186;28;20476;-57
2024/03/26 06:29:48;;;;;;;6.68;3.60;;;;;;;;;;5085640;28;20115;-57
2024/03/26 06:32:14;;;;;;;6.68;3.60;;;;;;;;;;5091194;28;20495;-57
2024/03/26 06:34:40;;;;;;;5.72;3.40;;;;;;;;;;5091338;28;20494;-58
2024/03/26 06:37:06;;;;;;;7.90;4.00;;;;;;;;;;5087498;28;20032;-57
2024/03/26 06:39:32;;;;;;;16.05;10.77;;;;;;;;;;5090532;28;20049;-58
2024/03/26 06:41:58;;;;;;;11.00;6.88;;;;;;;;;;5081787;28;20039;-58
2024/03/26 06:44:24;;;;;;;8.30;5.28;;;;;;;;;;5084491;28;20071;-57
2024/03/26 06:46:50;;;;;;;5.22;3.70;;;;;;;;;;5091186;28;20032;-57
2024/03/26 06:49:16;;;;;;;10.82;6.93;;;;;;;;;;5091207;28;20047;-58
2024/03/26 06:51:42;;;;;;;8.15;5.88;;;;;;;;;;5084608;28;20086;-58
2024/03/26 06:54:08;;;;;;;5.72;3.78;;;;;;;;;;5090435;28;20024;-55
2024/03/26 06:56:35;;;;;;;8.52;4.85;;;;;;;;;;5088307;28;20024;-57
2024/03/26 06:59:01;;;;;;;6.10;3.70;;;;;;;;;;5088385;28;20031;-58
2024/03/26 07:01:27;;;;;;;9.27;4.82;;;;;;;;;;5089923;28;20055;-58
2024/03/26 07:03:53;;;;;;;8.10;4.05;;;;;;;;;;5090288;28;20024;-58
2024/03/26 07:06:19;;;;;;;8.25;4.63;;;;;;;;;;5097123;28;20039;-57
2024/03/26 07:08:46;;;;;;;13.60;7.80;;;;;;;;;;5089043;28;20035;-58
2024/03/26 07:11:11;;;;;;;6.22;4.80;;;;;;;;;;5089341;28;20024;-57
2024/03/26 07:13:37;;;;;;;7.80;4.43;;;;;;;;;;5089891;28;20020;-57
2024/03/26 07:16:04;;;;;;;7.03;5.13;;;;;;;;;;5085544;28;20039;-58
2024/03/26 07:18:30;;;;;;;9.65;5.35;;;;;;;;;;5089954;28;20028;-56
2024/03/26 07:20:57;;;;;;;8.32;4.65;;;;;;;;;;5090155;28;20380;-58
2024/03/26 07:23:23;;;;;;;12.38;8.25;;;;;;;;;;5090353;28;20016;-56
2024/03/26 07:25:49;;;;;;;6.70;4.75;;;;;;;;;;5088526;28;20445;-58
2024/03/26 07:28:15;;;;;;;6.28;4.38;;;;;;;;;;5083747;28;20067;-58
2024/03/26 07:30:41;;;;;;;6.22;3.47;;;;;;;;;;5090668;28;20021;-58
2024/03/26 07:33:08;;;;;;;6.22;3.33;;;;;;;;;;5088196;28;20028;-58
2024/03/26 07:35:34;;;;;;;6.50;3.75;;;;;;;;;;5089723;28;20041;-58
2024/03/26 07:38:01;;;;;;;5.80;3.22;;;;;;;;;;5089914;28;20040;-58
2024/03/26 07:40:27;;;;;;;8.07;4.75;;;;;;;;;;5090041;28;20099;-58
2024/03/26 07:42:53;;;;;;;7.88;3.60;;;;;;;;;;5091536;28;20070;-58
2024/03/26 07:45:19;;;;;;;6.65;3.33;;;;;;;;;;5090519;28;20095;-58
2024/03/26 07:47:45;;;;;;;8.70;3.60;;;;;;;;;;5089342;28;20449;-53
2024/03/26 07:50:10;;;;;;;5.78;3.42;;;;;;;;;;5088474;28;20028;-52
2024/03/26 07:52:36;;;;;;;5.55;2.97;;;;;;;;;;5088811;28;20028;-52
2024/03/26 07:55:02;;;;;;;7.25;4.97;;;;;;;;;;5077575;28;20061;-54
2024/03/26 07:57:28;;;;;;;5.07;3.47;;;;;;;;;;5088062;28;20024;-52
2024/03/26 07:59:54;;;;;;;5.47;3.20;;;;;;;;;;5088550;28;20039;-53
2024/03/26 08:02:20;;;;;;;5.63;4.45;;;;;;;;;;5082292;28;20123;-53
2024/03/26 08:04:48;;;;;;;10.75;5.50;;;;;;;;;;5081840;28;20029;-50
2024/03/26 08:07:14;;;;;;;5.57;3.22;;;;;;;;;;5089908;28;20121;-53
2024/03/26 08:09:40;;;;;;;7.50;3.17;;;;;;;;;;5092441;28;20120;-53
2024/03/26 08:12:07;;;;;;;5.35;3.20;;;;;;;;;;5084368;28;20032;-53
2024/03/26 08:14:33;;;;;;;5.72;2.60;;;;;;;;;;5082171;28;20028;-53
2024/03/26 08:16:59;;;;;;;5.05;2.95;;;;;;;;;;5086489;28;20396;-54
2024/03/26 08:19:25;;;;;;;5.05;2.50;;;;;;;;;;5091406;28;20141;-54
2024/03/26 08:21:51;;;;;;;6.07;2.63;;;;;;;;;;5084273;28;20036;-51
2024/03/26 08:24:17;;;;;;;4.45;2.28;;;;;;;;;;5095584;28;20073;-53
2024/03/26 08:26:43;;;;;;;5.55;2.33;;;;;;;;;;5091037;28;20039;-53
2024/03/26 08:29:09;;;;;;;4.25;2.42;;;;;;;;;;5093596;28;20024;-52
2024/03/26 08:31:35;;;;;;;2.33;1.42;;;;;;;;;;5090541;28;20036;-53
2024/03/26 08:34:02;;;;;;;28.83;12.48;;;;;;;;;;5084069;28;20028;-51
2024/03/26 08:36:28;;;;;;;3.58;2.45;;;;;;;;;;5083802;28;20357;-51
2024/03/26 08:38:54;;;;;;;3.95;1.75;;;;;;;;;;5089760;28;20039;-52
2024/03/26 08:41:20;;;;;;;5.88;3.13;;;;;;;;;;5086039;28;20031;-54
2024/03/26 08:43:46;;;;;;;4.60;2.90;;;;;;;;;;5090865;28;20110;-52
2024/03/26 08:46:12;;;;;;;6.07;4.95;;;;;;;;;;5086869;28;20024;-54
2024/03/26 08:48:38;;;;;;;9.32;8.35;;;;;;;;;;5093243;28;20447;-53
2024/03/26 08:51:04;;;;;;;12.85;10.23;;;;;;;;;;5096279;28;20209;-53
2024/03/26 08:53:30;;;;;;;11.00;7.20;;;;;;;;;;5085056;28;20008;-54
2024/03/26 08:55:56;;;;;;;5.40;2.30;;;;;;;;;;5088438;28;20032;-52
2024/03/26 08:58:23;;;;;;;4.97;2.83;;;;;;;;;;5083368;28;20028;-53
2024/03/26 09:00:49;;;;;;;4.18;2.17;;;;;;;;;;5081384;28;20047;-52
2024/03/26 09:03:15;;;;;;;3.55;1.67;;;;;;;;;;5079846;28;20713;-55
2024/03/26 09:05:41;;;;;;;3.00;1.67;;;;;;;;;;5092733;28;20145;-52
2024/03/26 09:08:08;;;;;;;3.03;1.48;;;;;;;;;;5091202;28;20031;-57
2024/03/26 09:10:34;;;;;;;3.05;1.80;;;;;;;;;;5090690;28;20143;-58
2024/03/26 09:13:00;;;;;;;3.78;1.40;;;;;;;;;;5081452;28;20103;-58
2024/03/26 09:15:26;;;;;;;4.13;1.50;;;;;;;;;;5088746;28;20044;-57
2024/03/26 09:17:53;;;;;;;5.03;1.80;;;;;;;;;;5090615;28;20169;-52
2024/03/26 09:20:19;;;;;;;2.17;1.20;;;;;;;;;;5084060;28;20623;-52
2024/03/26 09:22:46;;;;;;;3.08;1.30;;;;;;;;;;5079855;28;20071;-56
2024/03/26 09:25:12;;;;;;;2.53;1.30;;;;;;;;;;5085160;28;20036;-52
2024/03/26 09:27:38;;;;;;;1.42;1.13;;;;;;;;;;5089008;28;20035;-52
2024/03/26 09:30:04;;;;;;;2.17;0.90;;;;;;;;;;5094645;28;20112;-52
2024/03/26 09:32:30;;;;;;;2.40;1.05;;;;;;;;;;5086578;28;20042;-54
2024/03/26 09:34:56;;;;;;;2.05;0.88;;;;;;;;;;5090613;28;20039;-54
2024/03/26 09:37:22;;;;;;;5.18;1.60;;;;;;;;;;5092248;28;20103;-54
2024/03/26 09:39:48;;;;;;;2.28;0.90;;;;;;;;;;5091010;28;20472;-51
2024/03/26 09:42:17;;;;;;;4.20;1.23;;;;;;;;;;5087006;28;20449;-54
2024/03/26 09:44:43;;;;;;;2.13;0.95;;;;;;;;;;5086197;28;20020;-53
2024/03/26 09:47:09;;;;;;;3.80;1.60;;;;;;;;;;5091923;28;20057;-53
2024/03/26 09:49:36;;;;;;;2.60;1.38;;;;;;;;;;5097292;28;20111;-55
2024/03/26 09:52:02;;;;;;;3.17;1.50;;;;;;;;;;5091003;28;20035;-55
2024/03/26 09:54:28;;;;;;;3.25;1.73;;;;;;;;;;5086471;28;20023;-53
2024/03/26 09:56:55;;;;;;;3.60;2.40;;;;;;;;;;5091740;28;20073;-54
2024/03/26 09:59:21;;;;;;;4.65;2.05;;;;;;;;;;5086743;28;20468;-53
2024/03/26 10:01:48;;;;;;;4.30;1.60;;;;;;;;;;5092353;28;20029;-56
2024/03/26 10:04:14;;;;;;;7.82;4.18;;;;;;;;;;5087282;28;20373;-54
2024/03/26 10:06:40;;;;;;;3.38;1.67;;;;;;;;;;5087341;28;20028;-54
2024/03/26 10:09:07;;;;;;;3.30;1.75;;;;;;;;;;5091703;28;20058;-52
2024/03/26 10:11:33;;;;;;;4.43;1.42;;;;;;;;;;5088535;28;20074;-55
2024/03/26 10:13:59;;;;;;;3.85;1.30;;;;;;;;;;5088623;28;20028;-56
2024/03/26 10:16:25;;;;;;;3.83;1.50;;;;;;;;;;5091434;28;20024;-53
2024/03/26 10:18:50;;;;;;;2.85;1.38;;;;;;;;;;5090070;28;20031;-60
2024/03/26 10:21:16;;;;;;;3.58;1.20;;;;;;;;;;5085948;28;20056;-59
2024/03/26 10:23:43;;;;;;;3.35;1.23;;;;;;;;;;5084932;28;20450;-58
2024/03/26 10:26:10;;;;;;;3.58;1.48;;;;;;;;;;5091401;28;20036;-58
2024/03/26 10:28:37;;;;;;;2.63;1.50;;;;;;;;;;5090110;28;20059;-56
2024/03/26 10:31:03;;;;;;;2.38;1.30;;;;;;;;;;5091123;28;20032;-53
2024/03/26 10:33:29;;;;;;;3.10;1.50;;;;;;;;;;5095903;28;20111;-56
2024/03/26 10:35:56;;;;;;;2.20;1.00;;;;;;;;;;5077495;28;20403;-56
2024/03/26 10:38:25;;;;;;;2.00;1.23;;;;;;;;;;5085795;28;20103;-57
2024/03/26 10:40:59;;;;;;;4.47;1.48;;;;;;;;;;5085626;28;20384;-56
2024/03/26 10:43:25;;;;;;;4.90;1.70;;;;;;;;;;5084157;28;20054;-55
2024/03/26 10:45:52;;;;;;;4.88;1.20;;;;;;;;;;5083637;28;20039;-56
2024/03/26 10:48:19;;;;;;;3.75;1.23;;;;;;;;;;5082156;28;20036;-55
2024/03/26 10:50:45;;;;;;;3.65;1.20;;;;;;;;;;5086931;28;20545;-56
2024/03/26 10:53:11;;;;;;;2.17;1.15;;;;;;;;;;5082521;28;20038;-56
2024/03/26 10:55:37;;;;;;;2.42;1.02;;;;;;;;;;5078404;28;20025;-56
2024/03/26 10:58:04;;;;;;;5.45;1.15;;;;;;;;;;5089269;28;20032;-56
2024/03/26 11:00:30;;;;;;;1.80;1.00;;;;;;;;;;5089609;28;20103;-56
2024/03/26 11:02:57;;;;;;;5.75;1.27;;;;;;;;;;5088653;28;20036;-56
2024/03/26 11:05:26;;;;;;;1.60;0.95;;;;;;;;;;5082449;28;20028;-55
2024/03/26 11:07:52;;;;;;;2.28;1.15;;;;;;;;;;5087565;28;20096;-57
2024/03/26 11:10:18;;;;;;;1.98;1.13;;;;;;;;;;5091047;28;20108;-56
2024/03/26 11:12:48;;;;;;;1.98;0.88;;;;;;;;;;5088648;28;20447;-56
2024/03/26 11:15:14;;;;;;;2.05;1.25;;;;;;;;;;5086587;28;20035;-56
2024/03/26 11:17:50;;;;;;;2.67;1.00;;;;;;;;;;5084287;28;20034;-54
2024/03/26 11:20:16;;;;;;;1.95;0.75;;;;;;;;;;5088116;28;20030;-56
2024/03/26 11:22:42;;;;;;;3.28;1.00;;;;;;;;;;5075419;28;20048;-56
2024/03/26 11:25:09;;;;;;;2.28;1.10;;;;;;;;;;5084474;28;20032;-56
2024/03/26 11:27:35;;;;;;;1.58;0.90;;;;;;;;;;5090730;28;20036;-53
2024/03/26 11:30:05;;;;;;;2.35;1.02;;;;;;;;;;5089729;28;20042;-54
2024/03/26 11:32:33;;;;;;;1.92;0.98;;;;;;;;;;5087858;28;20040;-54
2024/03/26 11:35:32;;;;;;;2.70;1.33;;;;;;;;;;5090396;28;20028;-54
2024/03/26 11:38:00;;;;;;;3.10;1.40;;;;;;;;;;5068055;28;20491;-60
2024/03/26 11:40:26;;;;;;;2.88;1.17;;;;;;;;;;5081818;28;20020;-60
2024/03/26 11:42:53;;;;;;;2.03;1.05;;;;;;;;;;5091534;28;20483;-59
2024/03/26 11:45:20;;;;;;;2.03;1.10;;;;;;;;;;5091824;28;20047;-59
2024/03/26 11:47:46;;;;;;;2.47;1.15;;;;;;;;;;5094541;28;20030;-60
2024/03/26 11:50:12;;;;;;;2.03;1.17;;;;;;;;;;5094069;28;20036;-60
2024/03/26 11:52:38;;;;;;;5.05;1.25;;;;;;;;;;5093468;28;20040;-60
2024/03/26 11:55:05;;;;;;;2.83;0.75;;;;;;;;;;5093458;28;20488;-59
2024/03/26 11:57:31;;;;;;;5.28;1.25;;;;;;;;;;5088695;28;20075;-60
2024/03/26 11:59:57;;;;;;;2.78;0.93;;;;;;;;;;5090546;28;20024;-59
2024/03/26 12:02:23;;;;;;;3.42;1.30;;;;;;;;;;5087324;28;20024;-60
2024/03/26 12:04:49;;;;;;;5.10;1.25;;;;;;;;;;5084619;28;20403;-60
2024/03/26 12:07:18;;;;;;;3.22;1.20;;;;;;;;;;5090317;28;20033;-60
2024/03/26 12:09:44;;;;;;;1.65;1.15;;;;;;;;;;5081470;28;20035;-60
2024/03/26 12:12:11;;;;;;;4.20;1.40;;;;;;;;;;5090871;28;20024;-60
2024/03/26 12:14:37;;;;;;;2.05;1.00;;;;;;;;;;5093405;28;20032;-59
2024/03/26 12:17:03;;;;;;;2.15;1.17;;;;;;;;;;5092563;28;20024;-59
2024/03/26 12:19:29;;;;;;;4.50;1.33;;;;;;;;;;5096049;28;20365;-60
2024/03/26 12:21:56;;;;;;;2.00;1.20;;;;;;;;;;5088584;28;20473;-60
2024/03/26 12:24:22;;;;;;;2.58;1.30;;;;;;;;;;5091695;28;20024;-59
2024/03/26 12:26:48;;;;;;;3.08;1.33;;;;;;;;;;5092251;28;20101;-59
2024/03/26 12:29:14;;;;;;;1.75;1.15;;;;;;;;;;5084479;28;20110;-60
2024/03/26 12:31:40;;;;;;;2.97;1.30;;;;;;;;;;5088517;28;20484;-58
2024/03/26 12:34:13;;;;;;;3.05;1.30;;;;;;;;;;5093628;28;20035;-60
2024/03/26 12:36:39;;;;;;;2.97;1.53;;;;;;;;;;5089212;28;20035;-59
2024/03/26 12:39:06;;;;;;;2.72;1.10;;;;;;;;;;5094046;28;20032;-58
2024/03/26 12:41:32;;;;;;;2.58;1.30;;;;;;;;;;5093724;28;20049;-59
2024/03/26 12:43:58;;;;;;;3.65;1.30;;;;;;;;;;5094421;28;20024;-57
2024/03/26 12:46:27;;;;;;;2.47;1.25;;;;;;;;;;5086641;28;20020;-58
2024/03/26 12:48:53;;;;;;;2.22;1.02;;;;;;;;;;5086153;28;20012;-56
2024/03/26 12:51:19;;;;;;;2.15;1.20;;;;;;;;;;5093622;28;20021;-56
2024/03/26 12:53:45;;;;;;;5.05;1.33;;;;;;;;;;5092861;28;20483;-56
2024/03/26 12:56:12;;;;;;;1.60;1.30;;;;;;;;;;5092963;28;20110;-56
2024/03/26 12:58:38;;;;;;;3.10;1.30;;;;;;;;;;5092477;28;20827;-57
2024/03/26 13:01:04;;;;;;;4.53;1.33;;;;;;;;;;5088149;28;20107;-56
2024/03/26 13:03:30;;;;;;;2.90;1.23;;;;;;;;;;5088892;28;20077;-56
2024/03/26 13:05:56;;;;;;;1.88;1.20;;;;;;;;;;5091808;28;20442;-56
2024/03/26 13:08:22;;;;;;;1.70;1.00;;;;;;;;;;5090287;28;20059;-56
2024/03/26 13:10:48;;;;;;;2.75;1.23;;;;;;;;;;5088095;28;20046;-56
2024/03/26 13:13:14;;;;;;;2.22;1.50;;;;;;;;;;5087804;28;20452;-56
2024/03/26 13:15:43;;;;;;;2.72;1.30;;;;;;;;;;5084684;28;20530;-56
2024/03/26 13:18:09;;;;;;;2.13;1.30;;;;;;;;;;5092817;28;20043;-56
2024/03/26 13:20:40;;;;;;;2.35;1.38;;;;;;;;;;5092998;28;20020;-56
2024/03/26 13:23:06;;;;;;;2.65;1.10;;;;;;;;;;5089417;28;20141;-56
2024/03/26 13:25:32;;;;;;;3.90;1.38;;;;;;;;;;5092825;28;20538;-56
2024/03/26 13:27:58;;;;;;;2.75;1.25;;;;;;;;;;5092789;28;20024;-56
2024/03/26 13:30:24;;;;;;;3.80;1.10;;;;;;;;;;5087704;28;20028;-56
2024/03/26 13:32:51;;;;;;;1.75;0.95;;;;;;;;;;5080413;28;20047;-56
2024/03/26 13:35:17;;;;;;;2.08;1.08;;;;;;;;;;5093327;28;20028;-56
2024/03/26 13:37:43;;;;;;;1.92;1.23;;;;;;;;;;5092358;28;20031;-56
2024/03/26 13:40:09;;;;;;;4.50;1.23;;;;;;;;;;5084367;28;20488;-57
2024/03/26 13:42:35;;;;;;;1.92;1.20;;;;;;;;;;5091693;28;20487;-55
2024/03/26 13:45:01;;;;;;;3.45;1.60;;;;;;;;;;5085945;28;20028;-56
2024/03/26 13:47:28;;;;;;;5.63;1.60;;;;;;;;;;5088561;28;20102;-58
2024/03/26 13:49:54;;;;;;;3.15;1.50;;;;;;;;;;5088067;28;20399;-58
2024/03/26 13:52:20;;;;;;;1.88;1.00;;;;;;;;;;5083775;28;20031;-59
2024/03/26 13:54:46;;;;;;;2.45;1.27;;;;;;;;;;5090700;28;20111;-59
2024/03/26 13:57:12;;;;;;;2.35;1.30;;;;;;;;;;5092349;28;20039;-57
2024/03/26 13:59:42;;;;;;;3.83;1.45;;;;;;;;;;5092287;28;20028;-56
2024/03/26 14:02:08;;;;;;;2.85;1.30;;;;;;;;;;5091430;28;20032;-56
2024/03/26 14:04:34;;;;;;;2.67;1.58;;;;;;;;;;5088088;28;20098;-56
2024/03/26 14:07:00;;;;;;;2.35;1.40;;;;;;;;;;5090837;28;20086;-56
2024/03/26 14:09:26;;;;;;;1.98;1.50;;;;;;;;;;5091946;28;20024;-56
2024/03/26 14:11:52;;;;;;;2.80;1.25;;;;;;;;;;5088776;28;20122;-56
2024/03/26 14:14:18;;;;;;;1.73;1.20;;;;;;;;;;5089343;28;20032;-57
2024/03/26 14:16:44;;;;;;;4.10;1.70;;;;;;;;;;5083782;28;20032;-56
2024/03/26 14:19:10;;;;;;;3.13;1.40;;;;;;;;;;5091368;28;20165;-55
2024/03/26 14:21:36;;;;;;;3.28;1.48;;;;;;;;;;5090577;28;20048;-55
2024/03/26 14:24:02;;;;;;;3.80;1.85;;;;;;;;;;5091440;28;20067;-56
2024/03/26 14:26:28;;;;;;;3.60;1.75;;;;;;;;;;5091252;28;20025;-55
2024/03/26 14:28:54;;;;;;;5.95;2.15;;;;;;;;;;5089593;28;20098;-56
2024/03/26 14:31:23;;;;;;;3.20;1.50;;;;;;;;;;5090090;28;20020;-56
2024/03/26 14:33:49;;;;;;;3.22;1.55;;;;;;;;;;5088189;28;20023;-54
2024/03/26 14:36:15;;;;;;;2.45;1.42;;;;;;;;;;5089651;28;20365;-56